sensor_id;sensor_type;location;lat;lon;timestamp;pressure;altitude;pressure_sealevel;temperature;humidity
61674;BME280;47573;43.832;5.974;2023-05-22T00:54:15;94956.00;;;25.88;71.40
61674;BME280;47573;43.832;5.974;2023-05-22T01:00:56;94938.75;;;25.87;71.42
61674;BME280;47573;43.832;5.974;2023-05-22T01:07:36;94934.09;;;25.88;71.30
61674;BME280;47573;43.832;5.974;2023-05-22T01:14:24;94933.56;;;25.86;71.39
61674;BME280;47573;43.832;5.974;2023-05-22T01:21:13;94940.94;;;25.85;71.27
61674;BME280;47573;43.832;5.974;2023-05-22T01:28:08;94937.38;;;25.80;71.17
61674;BME280;47573;43.832;5.974;2023-05-22T01:34:54;94939.56;;;25.78;71.30
61674;BME280;47573;43.832;5.974;2023-05-22T01:41:36;94932.97;;;25.74;71.38
61674;BME280;47573;43.832;5.974;2023-05-22T01:48:16;94945.56;;;25.75;71.25
61674;BME280;47573;43.832;5.974;2023-05-22T01:55:03;94949.38;;;25.69;71.15
61674;BME280;47573;43.832;5.974;2023-05-22T02:01:46;94945.00;;;25.68;71.25
61674;BME280;47573;43.832;5.974;2023-05-22T02:08:30;94940.34;;;25.63;71.28
61674;BME280;47573;43.832;5.974;2023-05-22T02:15:12;94929.41;;;25.63;71.01
61674;BME280;47573;43.832;5.974;2023-05-22T02:21:53;94919.25;;;25.59;71.27
61674;BME280;47573;43.832;5.974;2023-05-22T02:28:33;94925.25;;;25.56;71.14
61674;BME280;47573;43.832;5.974;2023-05-22T02:35:15;94926.09;;;25.51;71.33
61674;BME280;47573;43.832;5.974;2023-05-22T02:41:56;94933.47;;;25.50;71.20
61674;BME280;47573;43.832;5.974;2023-05-22T02:48:37;94924.69;;;25.48;71.20
61674;BME280;47573;43.832;5.974;2023-05-22T02:55:19;94921.97;;;25.48;70.98
61674;BME280;47573;43.832;5.974;2023-05-22T03:01:59;94920.59;;;25.46;70.92
61674;BME280;47573;43.832;5.974;2023-05-22T03:08:40;94905.53;;;25.43;70.98
61674;BME280;47573;43.832;5.974;2023-05-22T03:15:22;94908.28;;;25.43;70.88
61674;BME280;47573;43.832;5.974;2023-05-22T03:22:02;94896.78;;;25.41;70.91
61674;BME280;47573;43.832;5.974;2023-05-22T03:28:43;94892.63;;;25.39;70.77
61674;BME280;47573;43.832;5.974;2023-05-22T03:35:25;94885.28;;;25.34;71.00
61674;BME280;47573;43.832;5.974;2023-05-22T03:42:05;94892.38;;;25.35;70.68
61674;BME280;47573;43.832;5.974;2023-05-22T03:48:46;94887.44;;;25.32;70.64
61674;BME280;47573;43.832;5.974;2023-05-22T03:55:27;94886.91;;;25.30;70.77
61674;BME280;47573;43.832;5.974;2023-05-22T04:02:08;94895.63;;;25.27;70.93
61674;BME280;47573;43.832;5.974;2023-05-22T04:08:48;94890.16;;;25.27;70.67
61674;BME280;47573;43.832;5.974;2023-05-22T04:15:30;94887.69;;;25.26;70.69
61674;BME280;47573;43.832;5.974;2023-05-22T04:22:11;94887.38;;;25.22;70.70
61674;BME280;47573;43.832;5.974;2023-05-22T04:28:51;94887.38;;;25.22;70.58
61674;BME280;47573;43.832;5.974;2023-05-22T04:35:33;94895.84;;;25.21;70.62
61674;BME280;47573;43.832;5.974;2023-05-22T04:42:14;94909.78;;;25.19;70.64
61674;BME280;47573;43.832;5.974;2023-05-22T04:48:54;94916.34;;;25.18;70.57
61674;BME280;47573;43.832;5.974;2023-05-22T04:55:36;94915.25;;;25.19;70.55
61674;BME280;47573;43.832;5.974;2023-05-22T05:02:17;94913.09;;;25.21;70.34
61674;BME280;47573;43.832;5.974;2023-05-22T05:08:57;94920.19;;;25.22;70.24
61674;BME280;47573;43.832;5.974;2023-05-22T05:15:39;94916.84;;;25.10;69.04
61674;BME280;47573;43.832;5.974;2023-05-22T05:22:20;94917.91;;;25.04;69.05
61674;BME280;47573;43.832;5.974;2023-05-22T05:29:00;94915.69;;;24.96;69.05
61674;BME280;47573;43.832;5.974;2023-05-22T05:35:42;94925.88;;;24.69;69.64
61674;BME280;47573;43.832;5.974;2023-05-22T05:42:22;94924.13;;;24.90;69.29
61674;BME280;47573;43.832;5.974;2023-05-22T05:49:06;94922.81;;;24.97;69.65
61674;BME280;47573;43.832;5.974;2023-05-22T05:55:47;94933.22;;;25.05;69.29
61674;BME280;47573;43.832;5.974;2023-05-22T06:02:28;94942.50;;;25.04;69.74
61674;BME280;47573;43.832;5.974;2023-05-22T06:09:08;94943.06;;;25.06;69.47
61674;BME280;47573;43.832;5.974;2023-05-22T06:15:50;94954.03;;;25.16;69.34
61674;BME280;47573;43.832;5.974;2023-05-22T06:22:31;94954.03;;;25.16;69.47
61674;BME280;47573;43.832;5.974;2023-05-22T06:29:12;94963.28;;;25.10;70.20
61674;BME280;47573;43.832;5.974;2023-05-22T06:35:54;94954.81;;;25.07;68.94
61674;BME280;47573;43.832;5.974;2023-05-22T06:42:34;94967.69;;;25.11;68.99
61674;BME280;47573;43.832;5.974;2023-05-22T06:49:14;94968.25;;;25.13;69.53
61674;BME280;47573;43.832;5.974;2023-05-22T06:55:56;94974.31;;;25.25;68.42
61674;BME280;47573;43.832;5.974;2023-05-22T07:02:37;94978.16;;;25.29;68.95
61674;BME280;47573;43.832;5.974;2023-05-22T07:09:18;94986.34;;;25.29;69.44
61674;BME280;47573;43.832;5.974;2023-05-22T07:16:00;94985.28;;;25.35;68.72
61674;BME280;47573;43.832;5.974;2023-05-22T07:22:40;94997.56;;;25.33;69.93
61674;BME280;47573;43.832;5.974;2023-05-22T07:29:21;94996.84;;;25.47;68.36
61674;BME280;47573;43.832;5.974;2023-05-22T07:36:03;94999.81;;;25.41;68.49
61674;BME280;47573;43.832;5.974;2023-05-22T07:42:44;95001.53;;;25.52;68.07
61674;BME280;47573;43.832;5.974;2023-05-22T07:49:24;95008.38;;;25.60;68.01
61674;BME280;47573;43.832;5.974;2023-05-22T07:56:06;95006.47;;;25.55;68.81
61674;BME280;47573;43.832;5.974;2023-05-22T08:02:47;95001.28;;;25.59;67.54
61674;BME280;47573;43.832;5.974;2023-05-22T08:09:27;95002.97;;;25.75;67.12
61674;BME280;47573;43.832;5.974;2023-05-22T08:16:09;95007.38;;;25.76;67.36
61674;BME280;47573;43.832;5.974;2023-05-22T08:22:49;94995.88;;;25.79;66.86
61674;BME280;47573;43.832;5.974;2023-05-22T08:29:30;94993.19;;;25.84;67.00
61674;BME280;47573;43.832;5.974;2023-05-22T08:36:12;94993.72;;;25.86;67.42
61674;BME280;47573;43.832;5.974;2023-05-22T08:42:52;94999.19;;;25.91;67.05
61674;BME280;47573;43.832;5.974;2023-05-22T08:49:33;94996.22;;;25.92;67.48
61674;BME280;47573;43.832;5.974;2023-05-22T08:56:16;95000.34;;;25.95;67.42
61674;BME280;47573;43.832;5.974;2023-05-22T09:02:57;94991.03;;;25.96;67.52
61674;BME280;47573;43.832;5.974;2023-05-22T09:09:38;94993.22;;;25.99;67.48
61674;BME280;47573;43.832;5.974;2023-05-22T09:16:20;94993.22;;;26.04;67.29
61674;BME280;47573;43.832;5.974;2023-05-22T09:23:00;94992.16;;;26.10;67.00
61674;BME280;47573;43.832;5.974;2023-05-22T09:29:47;94997.66;;;26.10;67.02
61674;BME280;47573;43.832;5.974;2023-05-22T09:36:32;94988.63;;;26.14;66.94
61674;BME280;47573;43.832;5.974;2023-05-22T09:43:16;94996.56;;;26.16;67.05
61674;BME280;47573;43.832;5.974;2023-05-22T09:49:57;94989.47;;;26.15;61.36
61674;BME280;47573;43.832;5.974;2023-05-22T09:56:39;94983.44;;;26.13;61.52
61674;BME280;47573;43.832;5.974;2023-05-22T10:03:22;94975.81;;;26.30;64.16
61674;BME280;47573;43.832;5.974;2023-05-22T10:10:05;94973.06;;;26.40;63.77
61674;BME280;47573;43.832;5.974;2023-05-22T10:16:48;94973.59;;;26.37;63.57
61674;BME280;47573;43.832;5.974;2023-05-22T10:23:29;94980.19;;;26.26;64.29
61674;BME280;47573;43.832;5.974;2023-05-22T10:30:18;94971.97;;;26.26;63.68
61674;BME280;47573;43.832;5.974;2023-05-22T10:37:10;94961.00;;;26.31;63.54
61674;BME280;47573;43.832;5.974;2023-05-22T10:43:55;94960.47;;;26.34;64.21
61674;BME280;47573;43.832;5.974;2023-05-22T10:50:35;94948.44;;;26.50;64.28
61674;BME280;47573;43.832;5.974;2023-05-22T10:57:18;94964.28;;;26.43;63.78
61674;BME280;47573;43.832;5.974;2023-05-22T11:03:59;94962.09;;;26.45;64.37
61674;BME280;47573;43.832;5.974;2023-05-22T11:10:53;94962.66;;;26.27;59.72
61674;BME280;47573;43.832;5.974;2023-05-22T11:17:40;94961.56;;;26.38;63.82
61674;BME280;47573;43.832;5.974;2023-05-22T11:24:20;94953.91;;;26.35;64.42
61674;BME280;47573;43.832;5.974;2023-05-22T11:31:01;94969.50;;;26.35;64.67
61674;BME280;47573;43.832;5.974;2023-05-22T11:37:44;94965.97;;;26.34;65.06
61674;BME280;47573;43.832;5.974;2023-05-22T11:44:26;94963.75;;;26.36;65.19
61674;BME280;47573;43.832;5.974;2023-05-22T11:51:07;94978.53;;;26.35;65.31
61674;BME280;47573;43.832;5.974;2023-05-22T11:57:49;94982.91;;;26.31;65.58
61674;BME280;47573;43.832;5.974;2023-05-22T12:04:31;94977.72;;;26.29;65.77
61674;BME280;47573;43.832;5.974;2023-05-22T12:11:11;94990.56;;;26.29;65.82
61674;BME280;47573;43.832;5.974;2023-05-22T12:17:55;94946.22;;;26.22;66.16
61674;BME280;47573;43.832;5.974;2023-05-22T12:24:38;94948.13;;;26.26;66.11
61674;BME280;47573;43.832;5.974;2023-05-22T12:31:19;94981.97;;;25.80;65.51
61674;BME280;47573;43.832;5.974;2023-05-22T12:38:01;94971.28;;;25.74;64.80
61674;BME280;47573;43.832;5.974;2023-05-22T12:44:44;94971.28;;;25.79;64.79
61674;BME280;47573;43.832;5.974;2023-05-22T12:51:25;94960.13;;;26.00;64.94
61674;BME280;47573;43.832;5.974;2023-05-22T12:58:07;94959.34;;;26.10;65.19
61674;BME280;47573;43.832;5.974;2023-05-22T13:04:47;94948.69;;;26.13;65.43
61674;BME280;47573;43.832;5.974;2023-05-22T13:11:28;94938.00;;;26.17;65.62
61674;BME280;47573;43.832;5.974;2023-05-22T13:18:10;94917.22;;;26.21;65.55
61674;BME280;47573;43.832;5.974;2023-05-22T13:24:50;94913.38;;;26.22;65.71
61674;BME280;47573;43.832;5.974;2023-05-22T13:31:31;94916.09;;;26.22;65.74
61674;BME280;47573;43.832;5.974;2023-05-22T13:38:13;94912.84;;;26.25;65.80
61674;BME280;47573;43.832;5.974;2023-05-22T13:44:53;94906.56;;;26.29;65.93
61674;BME280;47573;43.832;5.974;2023-05-22T13:51:34;94908.47;;;26.29;66.29
61674;BME280;47573;43.832;5.974;2023-05-22T13:58:16;94911.22;;;26.34;66.24
61674;BME280;47573;43.832;5.974;2023-05-22T14:04:56;94911.22;;;26.34;66.42
61674;BME280;47573;43.832;5.974;2023-05-22T14:11:37;94903.53;;;26.36;66.44
61674;BME280;47573;43.832;5.974;2023-05-22T14:18:19;94899.44;;;26.34;66.40
61674;BME280;47573;43.832;5.974;2023-05-22T14:24:59;94901.34;;;26.38;66.63
61674;BME280;47573;43.832;5.974;2023-05-22T14:31:43;94900.81;;;26.36;66.84
61674;BME280;47573;43.832;5.974;2023-05-22T14:38:29;94915.31;;;26.42;66.89
61674;BME280;47573;43.832;5.974;2023-05-22T14:45:10;94922.69;;;26.46;67.15
61674;BME280;47573;43.832;5.974;2023-05-22T14:51:51;94927.09;;;26.42;66.84
61674;BME280;47573;43.832;5.974;2023-05-22T14:58:33;94932.28;;;26.49;66.72
61674;BME280;47573;43.832;5.974;2023-05-22T15:05:14;94937.47;;;26.45;67.34
61674;BME280;47573;43.832;5.974;2023-05-22T15:11:54;94932.56;;;26.57;66.79
61674;BME280;47573;43.832;5.974;2023-05-22T15:18:36;94934.47;;;26.52;67.31
61674;BME280;47573;43.832;5.974;2023-05-22T15:25:16;94932.53;;;26.62;66.96
61674;BME280;47573;43.832;5.974;2023-05-22T15:31:57;94931.47;;;26.63;67.04
61674;BME280;47573;43.832;5.974;2023-05-22T15:38:39;94925.97;;;26.63;67.37
61674;BME280;47573;43.832;5.974;2023-05-22T15:45:19;94934.19;;;26.63;67.46
61674;BME280;47573;43.832;5.974;2023-05-22T15:52:01;94941.31;;;26.64;67.49
61674;BME280;47573;43.832;5.974;2023-05-22T15:58:43;94933.09;;;26.64;67.46
61674;BME280;47573;43.832;5.974;2023-05-22T16:05:23;94938.03;;;26.67;67.70
61674;BME280;47573;43.832;5.974;2023-05-22T16:12:04;94938.03;;;26.67;67.86
61674;BME280;47573;43.832;5.974;2023-05-22T16:18:46;94951.16;;;26.70;67.72
61674;BME280;47573;43.832;5.974;2023-05-22T16:25:27;94948.97;;;26.67;68.12
61674;BME280;47573;43.832;5.974;2023-05-22T16:32:07;94950.06;;;26.71;68.13
61674;BME280;47573;43.832;5.974;2023-05-22T16:38:49;94953.38;;;26.73;68.21
61674;BME280;47573;43.832;5.974;2023-05-22T16:45:30;94941.31;;;26.74;68.30
61674;BME280;47573;43.832;5.974;2023-05-22T16:52:10;94933.63;;;26.71;68.31
61674;BME280;47573;43.832;5.974;2023-05-22T16:58:52;94929.28;;;26.75;68.01
61674;BME280;47573;43.832;5.974;2023-05-22T17:05:32;94938.56;;;26.74;68.01
61674;BME280;47573;43.832;5.974;2023-05-22T17:12:13;94938.03;;;26.77;68.26
61674;BME280;47573;43.832;5.974;2023-05-22T17:18:55;94950.63;;;26.78;68.52
61674;BME280;47573;43.832;5.974;2023-05-22T17:25:35;94947.91;;;26.73;68.55
61674;BME280;47573;43.832;5.974;2023-05-22T17:32:16;94951.16;;;26.70;68.84
61674;BME280;47573;43.832;5.974;2023-05-22T17:38:58;94950.63;;;26.78;68.53
61674;BME280;47573;43.832;5.974;2023-05-22T17:45:39;94961.31;;;26.80;68.76
61674;BME280;47573;43.832;5.974;2023-05-22T17:52:19;94957.22;;;26.77;68.62
61674;BME280;47573;43.832;5.974;2023-05-22T17:59:01;94959.38;;;26.80;68.42
61674;BME280;47573;43.832;5.974;2023-05-22T18:05:42;94962.66;;;26.82;68.68
61674;BME280;47573;43.832;5.974;2023-05-22T18:12:22;94975.53;;;26.87;68.71
61674;BME280;47573;43.832;5.974;2023-05-22T18:19:04;94991.16;;;26.86;68.72
61674;BME280;47573;43.832;5.974;2023-05-22T18:25:45;94995.81;;;26.81;69.01
61674;BME280;47573;43.832;5.974;2023-05-22T18:32:25;95009.78;;;26.84;69.04
61674;BME280;47573;43.832;5.974;2023-05-22T18:39:07;95015.84;;;26.81;69.16
61674;BME280;47573;43.832;5.974;2023-05-22T18:45:48;95022.94;;;26.72;68.42
61674;BME280;47573;43.832;5.974;2023-05-22T18:52:28;95026.75;;;26.71;67.96
61674;BME280;47573;43.832;5.974;2023-05-22T18:59:10;95021.03;;;26.78;68.73
61674;BME280;47573;43.832;5.974;2023-05-22T19:05:51;95033.63;;;26.79;69.24
61674;BME280;47573;43.832;5.974;2023-05-22T19:12:31;95033.38;;;26.75;69.74
61674;BME280;47573;43.832;5.974;2023-05-22T19:19:13;95045.41;;;26.79;70.32
61674;BME280;47573;43.832;5.974;2023-05-22T19:25:54;95034.47;;;26.79;71.43
61674;BME280;47573;43.832;5.974;2023-05-22T19:32:34;95033.91;;;26.77;73.59
61674;BME280;47573;43.832;5.974;2023-05-22T19:39:16;95045.94;;;26.76;74.29
61674;BME280;47573;43.832;5.974;2023-05-22T19:45:57;95055.81;;;26.77;74.62
61674;BME280;47573;43.832;5.974;2023-05-22T19:52:37;95077.72;;;26.82;75.17
61674;BME280;47573;43.832;5.974;2023-05-22T19:59:19;95083.19;;;26.72;75.49
61674;BME280;47573;43.832;5.974;2023-05-22T20:05:59;95100.16;;;26.69;75.80
61674;BME280;47573;43.832;5.974;2023-05-22T20:12:40;95100.69;;;26.66;75.73
61674;BME280;47573;43.832;5.974;2023-05-22T20:19:22;95108.41;;;26.74;75.30
61674;BME280;47573;43.832;5.974;2023-05-22T20:26:03;95104.59;;;26.85;74.80
61674;BME280;47573;43.832;5.974;2023-05-22T20:32:44;95107.06;;;26.87;74.78
61674;BME280;47573;43.832;5.974;2023-05-22T20:39:26;95104.03;;;26.83;74.44
61674;BME280;47573;43.832;5.974;2023-05-22T20:46:06;95116.06;;;26.82;74.53
61674;BME280;47573;43.832;5.974;2023-05-22T20:52:46;95111.72;;;26.81;74.28
61674;BME280;47573;43.832;5.974;2023-05-22T20:59:28;95112.78;;;26.80;74.33
61674;BME280;47573;43.832;5.974;2023-05-22T21:06:09;95105.97;;;26.78;74.22
61674;BME280;47573;43.832;5.974;2023-05-22T21:12:49;95099.09;;;26.75;74.29
61674;BME280;47573;43.832;5.974;2023-05-22T21:19:31;95117.16;;;26.76;74.31
61674;BME280;47573;43.832;5.974;2023-05-22T21:26:12;95113.09;;;26.74;74.24
61674;BME280;47573;43.832;5.974;2023-05-22T21:32:52;95114.44;;;26.76;74.21
61674;BME280;47573;43.832;5.974;2023-05-22T21:39:34;95116.38;;;26.76;74.03
61674;BME280;47573;43.832;5.974;2023-05-22T21:46:15;95110.06;;;26.75;74.09
61674;BME280;47573;43.832;5.974;2023-05-22T21:52:55;95110.00;;;26.70;73.99
61674;BME280;47573;43.832;5.974;2023-05-22T21:59:37;95106.78;;;26.73;73.68
61674;BME280;47573;43.832;5.974;2023-05-22T22:06:18;95113.88;;;26.74;73.35
61674;BME280;47573;43.832;5.974;2023-05-22T22:12:59;95111.41;;;26.73;73.33
61674;BME280;47573;43.832;5.974;2023-05-22T22:19:41;95101.53;;;26.67;73.41
61674;BME280;47573;43.832;5.974;2023-05-22T22:26:22;95107.00;;;26.67;73.49
61674;BME280;47573;43.832;5.974;2023-05-22T22:33:03;95115.22;;;26.67;73.06
61674;BME280;47573;43.832;5.974;2023-05-22T22:39:45;95111.66;;;26.66;72.96
61674;BME280;47573;43.832;5.974;2023-05-22T22:46:25;95106.72;;;26.63;72.92
61674;BME280;47573;43.832;5.974;2023-05-22T22:53:05;95113.00;;;26.64;72.90
61674;BME280;47573;43.832;5.974;2023-05-22T22:59:47;95109.47;;;26.63;72.75
61674;BME280;47573;43.832;5.974;2023-05-22T23:06:28;95108.38;;;26.59;72.86
61674;BME280;47573;43.832;5.974;2023-05-22T23:13:08;95106.69;;;26.58;72.89
61674;BME280;47573;43.832;5.974;2023-05-22T23:19:50;95107.81;;;26.57;72.89
61674;BME280;47573;43.832;5.974;2023-05-22T23:26:31;95113.81;;;26.54;72.94
61674;BME280;47573;43.832;5.974;2023-05-22T23:33:12;95108.34;;;26.54;72.84
61674;BME280;47573;43.832;5.974;2023-05-22T23:39:54;95113.81;;;26.54;72.80
61674;BME280;47573;43.832;5.974;2023-05-22T23:46:34;95117.63;;;26.53;72.79
61674;BME280;47573;43.832;5.974;2023-05-22T23:53:14;95119.81;;;26.51;72.77
61674;BME280;47573;43.832;5.974;2023-05-22T23:59:56;95116.00;;;26.52;72.78
